Time;durP1;ratioP1;P1;durP2;ratioP2;P2;SDS_P1;SDS_P2;PMS_P1;PMS_P2;Temp;Humidity;BMP_temperature;BMP_pressure;BME280_temperature;BME280_humidity;BME280_pressure;Samples;Min_cycle;Max_cycle;Signal;HPM_P1;HPM_P2
2022/08/20 00:00:16;;;;;;;22.58;13.95;;;18.00;99.90;;;;;;5042420;28;20124;-68
2022/08/20 00:02:45;;;;;;;24.50;14.77;;;18.00;99.90;;;;;;5023795;28;20061;-68
2022/08/20 00:05:13;;;;;;;27.88;13.90;;;18.00;99.90;;;;;;5041803;28;20068;-68
2022/08/20 00:07:39;;;;;;;24.35;13.60;;;18.10;99.90;;;;;;5040655;28;20103;-67
2022/08/20 00:10:07;;;;;;;23.02;13.23;;;18.20;99.90;;;;;;5044269;28;20072;-68
2022/08/20 00:12:34;;;;;;;20.65;13.38;;;18.10;99.90;;;;;;5057389;28;20048;-68
2022/08/20 00:15:00;;;;;;;25.00;13.60;;;18.00;99.90;;;;;;5039488;28;20384;-68
2022/08/20 00:17:26;;;;;;;26.45;13.88;;;18.20;99.90;;;;;;5045321;28;20043;-68
2022/08/20 00:19:52;;;;;;;26.25;14.38;;;18.20;99.90;;;;;;5044063;28;20045;-67
2022/08/20 00:22:17;;;;;;;23.13;13.80;;;17.90;99.90;;;;;;5055120;28;20041;-67
2022/08/20 00:24:43;;;;;;;22.90;12.90;;;17.90;99.90;;;;;;5042943;28;20107;-67
2022/08/20 00:27:08;;;;;;;21.30;13.85;;;17.90;99.90;;;;;;5045124;28;20483;-68
2022/08/20 00:29:34;;;;;;;26.45;13.60;;;18.10;99.90;;;;;;5064207;28;20147;-67
2022/08/20 00:31:59;;;;;;;24.13;13.77;;;17.80;99.90;;;;;;5070101;28;20043;-67
2022/08/20 00:34:25;;;;;;;26.42;14.23;;;18.00;99.90;;;;;;5048038;28;20048;-67
2022/08/20 00:36:52;;;;;;;25.67;13.10;;;17.70;99.90;;;;;;5048866;28;20041;-67
2022/08/20 00:39:18;;;;;;;20.90;13.38;;;17.80;99.90;;;;;;5061038;28;20072;-68
2022/08/20 00:41:43;;;;;;;21.92;13.43;;;17.70;99.90;;;;;;5030774;28;20036;-68
2022/08/20 00:44:11;;;;;;;23.75;12.70;;;17.70;99.90;;;;;;5046528;28;20380;-69
2022/08/20 00:46:39;;;;;;;21.95;12.20;;;17.80;99.90;;;;;;5042363;28;20055;-68
2022/08/20 00:49:07;;;;;;;22.20;12.73;;;17.70;99.90;;;;;;5049376;28;20095;-68
2022/08/20 00:51:37;;;;;;;22.45;12.30;;;17.80;99.90;;;;;;5049842;28;20041;-68
2022/08/20 00:54:38;;;;;;;25.30;12.68;;;17.60;99.90;;;;;;5050053;28;20047;-68
2022/08/20 00:57:11;;;;;;;20.55;11.63;;;17.70;99.90;;;;;;5045788;28;20044;-68
2022/08/20 00:59:39;;;;;;;22.73;11.90;;;17.70;99.90;;;;;;5047032;28;20036;-68
2022/08/20 01:02:09;;;;;;;23.27;12.05;;;17.70;99.90;;;;;;5045975;28;20056;-68
2022/08/20 01:04:37;;;;;;;26.83;12.10;;;17.70;99.90;;;;;;5041382;28;20037;-68
2022/08/20 01:07:05;;;;;;;23.30;12.00;;;17.80;99.90;;;;;;5050622;28;20047;-67
2022/08/20 01:09:32;;;;;;;22.70;11.25;;;17.80;99.90;;;;;;5050811;28;20127;-68
2022/08/20 01:11:58;;;;;;;25.45;11.23;;;17.60;99.90;;;;;;5046736;28;20082;-68
2022/08/20 01:17:01;;;;;;;22.30;11.57;;;17.60;99.90;;;;;;5042624;28;20052;-67
2022/08/20 01:19:47;;;;;;;26.92;11.95;;;17.60;99.90;;;;;;5044357;28;20045;-68
2022/08/20 01:25:14;;;;;;;25.33;12.27;;;17.60;99.90;;;;;;5040246;28;20076;-68
2022/08/20 01:27:40;;;;;;;22.60;11.68;;;17.60;99.90;;;;;;5060517;28;20044;-68
2022/08/20 01:30:06;;;;;;;28.80;11.75;;;17.50;99.90;;;;;;5044273;28;20112;-68
2022/08/20 01:32:32;;;;;;;26.33;11.93;;;17.80;99.90;;;;;;5056799;28;20051;-68
2022/08/20 01:34:58;;;;;;;24.05;12.38;;;17.70;99.90;;;;;;5046017;28;20037;-69
2022/08/20 01:37:23;;;;;;;22.65;11.20;;;17.70;99.90;;;;;;5026316;28;20086;-68
2022/08/20 01:39:49;;;;;;;23.58;11.25;;;17.50;99.90;;;;;;5042830;28;20243;-69
2022/08/20 01:42:26;;;;;;;24.25;11.77;;;17.80;99.90;;;;;;5035985;28;20435;-68
2022/08/20 01:44:52;;;;;;;22.35;11.00;;;17.70;99.90;;;;;;5024113;28;20385;-69
2022/08/20 01:47:27;;;;;;;23.10;10.75;;;17.60;99.90;;;;;;5044971;28;20033;-69
2022/08/20 01:49:57;;;;;;;19.50;10.88;;;17.50;99.90;;;;;;5050454;28;20033;-67
2022/08/20 01:52:32;;;;;;;18.88;10.63;;;17.50;99.90;;;;;;5026522;28;20049;-67
2022/08/20 01:54:57;;;;;;;20.33;10.13;;;17.60;99.90;;;;;;5046865;28;20543;-69
2022/08/20 01:57:25;;;;;;;24.58;9.27;;;17.70;99.90;;;;;;5043961;28;20052;-69
2022/08/20 01:59:53;;;;;;;23.90;9.45;;;17.60;99.90;;;;;;5043400;28;20063;-69
2022/08/20 02:02:19;;;;;;;19.83;9.48;;;17.60;99.90;;;;;;5044121;28;20037;-68
2022/08/20 02:04:44;;;;;;;21.38;9.60;;;17.80;99.90;;;;;;5040936;28;20036;-68
2022/08/20 02:07:18;;;;;;;20.60;10.07;;;17.70;99.90;;;;;;5057489;28;20132;-68
2022/08/20 02:09:45;;;;;;;20.63;9.57;;;17.80;99.90;;;;;;5059238;28;20452;-68
2022/08/20 02:12:13;;;;;;;29.00;10.93;;;17.80;99.90;;;;;;5043918;28;20407;-68
2022/08/20 02:14:41;;;;;;;22.05;10.40;;;17.70;99.90;;;;;;5043643;28;20047;-68
2022/08/20 02:17:07;;;;;;;24.13;10.35;;;17.50;99.90;;;;;;5040223;28;20048;-68
2022/08/20 02:19:47;;;;;;;18.40;10.20;;;17.70;99.90;;;;;;5040637;28;20036;-68
2022/08/20 02:22:21;;;;;;;21.48;11.10;;;17.50;99.90;;;;;;5056938;28;20044;-68
2022/08/20 02:24:46;;;;;;;23.50;10.65;;;17.70;99.90;;;;;;5056670;28;20349;-68
2022/08/20 02:27:13;;;;;;;18.67;9.90;;;17.50;99.90;;;;;;5042399;28;20037;-68
2022/08/20 02:29:39;;;;;;;21.30;10.32;;;17.40;99.90;;;;;;5045071;28;20152;-67
2022/08/20 02:32:06;;;;;;;19.70;10.00;;;17.40;99.90;;;;;;5042655;28;20072;-68
2022/08/20 02:34:34;;;;;;;21.50;9.85;;;17.40;99.90;;;;;;5045337;28;20341;-68
2022/08/20 02:37:02;;;;;;;23.73;9.63;;;17.50;99.90;;;;;;5044138;28;20037;-68
2022/08/20 02:39:28;;;;;;;24.98;9.30;;;17.50;99.90;;;;;;5041978;28;20090;-68
2022/08/20 02:41:53;;;;;;;19.33;9.95;;;17.40;99.90;;;;;;5040832;28;20096;-68
2022/08/20 02:44:20;;;;;;;20.60;10.02;;;17.30;99.90;;;;;;5035238;28;20068;-68
2022/08/20 02:46:48;;;;;;;21.08;9.82;;;17.40;99.90;;;;;;5037822;28;20036;-68
2022/08/20 02:49:16;;;;;;;26.10;10.50;;;17.50;99.90;;;;;;5043144;28;20164;-68
2022/08/20 02:51:43;;;;;;;24.13;10.70;;;17.30;99.90;;;;;;5039877;28;20044;-68
2022/08/20 02:54:08;;;;;;;20.77;9.98;;;17.50;99.90;;;;;;5044142;28;20393;-68
2022/08/20 02:56:34;;;;;;;19.05;9.57;;;17.40;99.90;;;;;;5042541;28;20052;-68
2022/08/20 02:59:00;;;;;;;26.55;10.02;;;17.30;99.90;;;;;;5036468;28;20111;-68
2022/08/20 03:01:26;;;;;;;20.15;10.00;;;17.50;99.90;;;;;;5029048;28;20134;-68
2022/08/20 03:03:52;;;;;;;21.75;10.25;;;17.40;99.90;;;;;;5038662;28;20041;-68
2022/08/20 03:06:20;;;;;;;22.42;10.07;;;17.30;99.90;;;;;;5037487;28;20041;-68
2022/08/20 03:08:46;;;;;;;23.80;10.90;;;17.40;99.90;;;;;;5035766;28;20488;-68
2022/08/20 03:11:12;;;;;;;22.80;10.48;;;17.30;99.90;;;;;;5030558;28;20036;-68
2022/08/20 03:13:38;;;;;;;25.30;10.52;;;17.40;99.90;;;;;;5035610;28;20044;-68
2022/08/20 03:16:05;;;;;;;21.85;10.23;;;17.30;99.90;;;;;;5035523;28;20041;-68
2022/08/20 03:18:41;;;;;;;20.23;10.88;;;17.30;99.90;;;;;;5036942;28;20033;-68
2022/08/20 03:21:07;;;;;;;23.25;10.63;;;17.10;99.90;;;;;;5036804;28;20218;-68
2022/08/20 03:23:34;;;;;;;27.38;11.15;;;17.10;99.90;;;;;;5033963;28;20052;-68
2022/08/20 03:26:00;;;;;;;16.65;10.25;;;17.10;99.90;;;;;;5033130;28;20036;-68
2022/08/20 03:28:26;;;;;;;26.45;10.40;;;17.20;99.90;;;;;;5052015;28;20046;-68
2022/08/20 03:30:53;;;;;;;25.20;10.30;;;17.00;99.90;;;;;;5040874;28;20255;-68
2022/08/20 03:33:19;;;;;;;29.25;10.27;;;17.10;99.90;;;;;;5046265;28;20033;-68
2022/08/20 03:35:46;;;;;;;22.52;10.48;;;17.20;99.90;;;;;;5044577;28;20439;-68
2022/08/20 03:38:13;;;;;;;21.30;10.70;;;17.00;99.90;;;;;;5041897;28;20574;-68
2022/08/20 03:40:40;;;;;;;27.55;10.82;;;17.10;99.90;;;;;;5037489;28;20052;-68
2022/08/20 03:43:07;;;;;;;23.02;11.00;;;17.00;99.90;;;;;;5037009;28;20480;-68
2022/08/20 03:45:35;;;;;;;23.42;10.80;;;17.20;99.90;;;;;;5036170;28;20403;-68
2022/08/20 03:48:02;;;;;;;23.02;11.30;;;17.00;99.90;;;;;;5039887;28;20052;-68
2022/08/20 03:50:30;;;;;;;20.63;10.60;;;17.10;99.90;;;;;;5021370;28;20133;-68
2022/08/20 03:52:57;;;;;;;20.90;11.13;;;17.20;99.90;;;;;;5036939;28;20083;-68
2022/08/20 03:55:23;;;;;;;27.88;11.13;;;17.00;99.90;;;;;;5041601;28;20065;-68
2022/08/20 03:58:02;;;;;;;18.30;10.65;;;17.20;99.90;;;;;;5043353;28;20072;-69
2022/08/20 04:00:37;;;;;;;23.80;10.38;;;17.00;99.90;;;;;;5046688;28;20045;-68
2022/08/20 04:03:04;;;;;;;19.88;10.10;;;17.20;99.90;;;;;;5041594;28;20128;-68
2022/08/20 04:05:32;;;;;;;26.75;10.50;;;17.20;99.90;;;;;;5054257;28;20045;-68
2022/08/20 04:07:59;;;;;;;23.10;10.18;;;17.10;99.90;;;;;;5044270;28;20047;-68
2022/08/20 04:10:25;;;;;;;22.88;10.75;;;17.10;99.90;;;;;;5042641;28;20456;-68
2022/08/20 04:12:51;;;;;;;24.73;10.20;;;17.10;99.90;;;;;;5045372;28;20475;-69
2022/08/20 04:15:18;;;;;;;19.23;10.52;;;17.10;99.90;;;;;;5058908;28;20098;-68
2022/08/20 04:17:46;;;;;;;22.10;10.45;;;16.90;99.90;;;;;;5044716;28;20436;-68
2022/08/20 04:20:17;;;;;;;20.30;9.32;;;17.00;99.90;;;;;;5026872;28;20052;-68
2022/08/20 04:22:43;;;;;;;17.08;9.55;;;16.90;99.90;;;;;;5055962;28;20045;-69
2022/08/20 04:25:09;;;;;;;18.45;8.73;;;17.00;99.90;;;;;;5044215;28;20064;-70
2022/08/20 04:27:37;;;;;;;17.25;8.43;;;17.10;99.90;;;;;;5036996;28;20464;-69
2022/08/20 04:30:06;;;;;;;18.73;8.63;;;16.80;99.90;;;;;;5057917;28;20484;-68
2022/08/20 04:32:35;;;;;;;16.10;9.05;;;16.90;99.90;;;;;;5028688;28;20049;-68
2022/08/20 04:35:01;;;;;;;17.38;9.70;;;16.80;99.90;;;;;;5045863;28;20047;-68
2022/08/20 04:37:26;;;;;;;21.75;9.20;;;16.70;99.90;;;;;;5037525;28;20057;-68
2022/08/20 04:42:37;;;;;;;21.77;8.52;;;16.80;99.90;;;;;;5040015;28;20626;-70
2022/08/20 04:45:07;;;;;;;14.65;8.50;;;16.80;99.90;;;;;;5044355;28;20087;-70
2022/08/20 04:47:34;;;;;;;18.38;8.95;;;16.60;99.90;;;;;;5040364;28;20048;-69
2022/08/20 04:50:00;;;;;;;17.33;8.43;;;16.70;99.90;;;;;;5057740;28;20033;-68
2022/08/20 04:52:27;;;;;;;15.93;8.30;;;16.60;99.90;;;;;;5058468;28;20404;-68
2022/08/20 04:54:55;;;;;;;19.73;8.50;;;16.50;99.90;;;;;;5045030;28;20043;-68
2022/08/20 04:57:24;;;;;;;13.15;8.10;;;16.40;99.90;;;;;;5040585;28;20519;-68
2022/08/20 04:59:53;;;;;;;16.88;8.05;;;16.60;99.90;;;;;;5043905;28;20438;-68
2022/08/20 05:02:20;;;;;;;14.48;8.02;;;16.50;99.90;;;;;;5035663;28;20043;-67
2022/08/20 05:04:47;;;;;;;17.27;8.32;;;16.40;99.90;;;;;;5051414;28;20043;-68
2022/08/20 05:07:15;;;;;;;20.48;9.00;;;16.30;99.90;;;;;;5038981;28;20045;-68
2022/08/20 05:09:41;;;;;;;15.80;8.32;;;16.40;99.90;;;;;;5040161;28;20044;-67
2022/08/20 05:12:08;;;;;;;18.27;7.85;;;16.40;99.90;;;;;;5038966;28;20052;-67
2022/08/20 05:14:34;;;;;;;15.35;7.75;;;16.20;99.90;;;;;;5054735;28;20036;-68
2022/08/20 05:17:04;;;;;;;18.73;7.43;;;16.20;99.90;;;;;;5023937;28;20041;-68
2022/08/20 05:19:31;;;;;;;15.30;8.02;;;16.30;99.90;;;;;;5032999;28;20635;-67
2022/08/20 05:21:57;;;;;;;17.98;8.10;;;16.30;99.90;;;;;;5040666;28;20065;-68
2022/08/20 05:24:24;;;;;;;17.45;7.85;;;16.40;99.90;;;;;;5042253;28;20064;-68
2022/08/20 05:26:49;;;;;;;14.00;7.90;;;16.40;99.90;;;;;;5036680;28;20041;-68
2022/08/20 05:29:15;;;;;;;15.95;8.07;;;16.30;99.90;;;;;;5040941;28;20519;-68
2022/08/20 05:31:41;;;;;;;18.38;7.70;;;16.40;99.90;;;;;;5056093;28;20037;-68
2022/08/20 05:34:09;;;;;;;15.18;7.75;;;16.30;99.90;;;;;;5040387;28;20037;-68
2022/08/20 05:36:38;;;;;;;13.07;7.43;;;16.50;99.90;;;;;;5035312;28;20048;-68
2022/08/20 05:39:04;;;;;;;17.33;8.18;;;16.30;99.90;;;;;;5034828;28;20099;-68
2022/08/20 05:41:29;;;;;;;13.25;7.30;;;16.30;99.90;;;;;;5037130;28;20518;-68
2022/08/20 05:44:01;;;;;;;14.25;7.82;;;16.40;99.90;;;;;;5040017;28;20076;-68
2022/08/20 05:46:29;;;;;;;;;;;16.40;99.90;;;;;;5036250;28;20045;-68
2022/08/20 05:48:54;;;;;;;16.65;8.55;;;16.40;99.90;;;;;;5037879;28;19924;-68
2022/08/20 05:51:20;;;;;;;17.20;8.60;;;16.50;99.90;;;;;;5037437;28;20419;-68
2022/08/20 05:53:46;;;;;;;17.48;8.70;;;16.50;99.90;;;;;;5054782;28;20102;-68
2022/08/20 05:56:11;;;;;;;22.45;9.23;;;16.60;99.90;;;;;;5035746;28;20106;-68
2022/08/20 05:58:37;;;;;;;15.43;8.48;;;16.60;99.90;;;;;;5039121;28;20041;-68
2022/08/20 06:01:03;;;;;;;15.15;8.18;;;16.90;99.90;;;;;;5051884;28;20037;-68
2022/08/20 06:06:13;;;;;;;18.20;7.72;;;17.00;99.90;;;;;;5037303;28;20052;-68
2022/08/20 06:08:40;;;;;;;13.90;7.88;;;17.10;99.90;;;;;;5034598;28;20640;-68
2022/08/20 06:11:06;;;;;;;17.75;7.82;;;17.10;99.90;;;;;;5040066;28;20400;-68
2022/08/20 06:13:32;;;;;;;14.45;7.43;;;17.10;99.90;;;;;;5045491;28;20045;-68
2022/08/20 06:15:59;;;;;;;14.60;6.55;;;17.20;99.90;;;;;;5061305;28;20037;-68
2022/08/20 06:18:25;;;;;;;12.80;6.18;;;17.30;99.90;;;;;;5037570;28;20051;-68
2022/08/20 06:20:51;;;;;;;10.05;5.85;;;17.20;99.90;;;;;;5050492;28;20037;-68
2022/08/20 06:23:17;;;;;;;12.85;6.10;;;17.30;99.90;;;;;;5035006;28;20067;-68
2022/08/20 06:25:44;;;;;;;15.75;6.13;;;17.50;99.90;;;;;;5035558;28;20041;-69
2022/08/20 06:28:12;;;;;;;14.77;6.20;;;17.50;99.90;;;;;;5037858;28;20037;-68
2022/08/20 06:30:37;;;;;;;17.88;5.65;;;17.70;99.90;;;;;;5055598;28;20119;-68
2022/08/20 06:33:03;;;;;;;14.85;4.90;;;17.80;99.90;;;;;;5031811;28;20433;-69
2022/08/20 06:35:29;;;;;;;11.73;4.93;;;17.90;99.90;;;;;;5043973;28;20106;-69
2022/08/20 06:37:56;;;;;;;11.77;5.00;;;18.10;99.90;;;;;;5042814;28;20037;-69
2022/08/20 06:40:24;;;;;;;9.57;4.78;;;18.20;99.90;;;;;;5045070;28;20041;-69
2022/08/20 06:42:51;;;;;;;6.78;3.70;;;18.30;99.90;;;;;;5058377;28;20483;-69
2022/08/20 06:45:23;;;;;;;10.45;3.10;;;18.30;99.90;;;;;;5041365;28;20041;-69
2022/08/20 06:47:50;;;;;;;11.88;3.15;;;18.20;99.90;;;;;;5044453;28;20041;-69
2022/08/20 06:50:20;;;;;;;9.32;3.40;;;18.20;99.90;;;;;;5043534;28;20396;-69
2022/08/20 06:52:46;;;;;;;12.70;3.22;;;18.20;99.90;;;;;;5041552;28;20052;-68
2022/08/20 06:55:14;;;;;;;10.50;3.08;;;18.10;99.90;;;;;;5042482;28;20253;-69
2022/08/20 06:57:40;;;;;;;12.27;3.25;;;18.10;99.90;;;;;;5041139;28;20029;-69
2022/08/20 07:00:10;;;;;;;11.50;3.40;;;18.10;99.90;;;;;;5045378;28;20052;-69
2022/08/20 07:02:36;;;;;;;7.50;2.90;;;18.20;99.90;;;;;;5043924;28;20045;-69
2022/08/20 07:05:04;;;;;;;9.55;2.95;;;18.20;99.90;;;;;;5062966;28;20063;-69
2022/08/20 07:07:29;;;;;;;12.98;3.03;;;18.30;99.90;;;;;;5046857;28;20094;-70
2022/08/20 07:10:00;;;;;;;9.20;2.45;;;18.40;99.90;;;;;;5048174;28;20044;-69
2022/08/20 07:12:26;;;;;;;10.15;2.85;;;18.60;99.90;;;;;;5043730;28;20102;-69
2022/08/20 07:14:51;;;;;;;7.82;2.50;;;18.70;99.90;;;;;;5043737;28;20598;-69
2022/08/20 07:17:17;;;;;;;6.18;2.35;;;18.80;99.90;;;;;;5040061;28;20276;-70
2022/08/20 07:19:42;;;;;;;9.73;2.47;;;18.80;99.90;;;;;;5049080;28;20075;-70
2022/08/20 07:22:08;;;;;;;4.47;1.92;;;18.90;99.90;;;;;;5050117;28;20679;-69
2022/08/20 07:24:33;;;;;;;8.00;2.50;;;19.00;99.90;;;;;;5047089;28;20033;-68
2022/08/20 07:26:59;;;;;;;6.25;2.00;;;19.00;99.90;;;;;;5048693;28;20048;-69
2022/08/20 07:32:33;;;;;;;7.70;2.00;;;19.10;99.90;;;;;;5058181;28;20441;-69
2022/08/20 07:34:55;;;;;;;7.65;1.80;;;19.30;99.90;;;;;;5068207;28;20399;-69
2022/08/20 07:37:22;;;;;;;8.27;1.70;;;19.30;99.90;;;;;;5050279;28;20123;-70
2022/08/20 07:39:48;;;;;;;10.23;2.15;;;19.30;99.90;;;;;;5049108;28;20056;-69
2022/08/20 07:42:14;;;;;;;9.07;2.03;;;19.40;99.90;;;;;;5045531;28;20087;-68
2022/08/20 07:44:40;;;;;;;8.20;1.98;;;19.40;99.90;;;;;;5065247;28;20040;-70
2022/08/20 07:47:18;;;;;;;4.00;1.35;;;19.50;99.90;;;;;;5046178;28;20631;-69
2022/08/20 07:49:44;;;;;;;6.25;2.00;;;19.50;99.90;;;;;;5051849;28;20036;-71
2022/08/20 07:52:09;;;;;;;5.32;2.15;;;19.60;99.90;;;;;;5031269;28;20571;-68
2022/08/20 07:54:36;;;;;;;6.53;1.60;;;19.70;99.90;;;;;;5064395;28;20049;-69
2022/08/20 07:57:02;;;;;;;7.72;1.85;;;19.70;99.90;;;;;;5059601;28;20124;-70
2022/08/20 07:59:29;;;;;;;7.15;1.50;;;19.80;99.90;;;;;;5048345;28;20143;-68
2022/08/20 08:01:55;;;;;;;6.03;1.50;;;19.90;99.90;;;;;;5048636;28;20041;-69
2022/08/20 08:04:22;;;;;;;4.90;1.55;;;20.00;99.90;;;;;;5047057;28;20430;-69
2022/08/20 08:06:47;;;;;;;6.90;1.60;;;20.00;99.90;;;;;;5048273;28;20064;-68
2022/08/20 08:09:13;;;;;;;4.78;1.20;;;20.00;99.90;;;;;;5059359;28;20067;-69
2022/08/20 08:11:43;;;;;;;4.80;1.27;;;20.10;99.90;;;;;;5061336;28;20114;-70
2022/08/20 08:14:10;;;;;;;8.02;1.40;;;20.20;99.90;;;;;;5044191;28;20045;-68
2022/08/20 08:16:37;;;;;;;5.85;1.30;;;20.20;99.90;;;;;;5048476;28;20041;-69
2022/08/20 08:19:05;;;;;;;8.88;1.20;;;20.20;99.90;;;;;;5047195;28;20127;-68
2022/08/20 08:21:31;;;;;;;3.22;1.23;;;20.20;99.90;;;;;;5061980;28;20033;-69
2022/08/20 08:23:57;;;;;;;7.47;1.48;;;20.20;99.90;;;;;;5047765;28;20083;-69
2022/08/20 08:26:24;;;;;;;5.20;1.65;;;20.20;99.90;;;;;;5048361;28;20041;-68
2022/08/20 08:28:50;;;;;;;6.32;1.65;;;20.30;99.90;;;;;;5052039;28;20083;-68
2022/08/20 08:31:15;;;;;;;4.38;1.67;;;20.40;99.90;;;;;;5050729;28;20077;-68
2022/08/20 08:33:41;;;;;;;7.00;1.80;;;20.40;99.90;;;;;;5065008;28;20052;-69
2022/08/20 08:36:11;;;;;;;5.20;1.38;;;20.50;99.90;;;;;;5051853;28;20047;-69
2022/08/20 08:38:38;;;;;;;8.52;1.80;;;20.50;99.90;;;;;;5043744;28;20384;-69
2022/08/20 08:41:35;;;;;;;5.45;1.52;;;20.60;99.90;;;;;;5047946;28;20051;-70
2022/08/20 08:44:04;;;;;;;5.20;1.70;;;20.70;99.90;;;;;;5043195;28;20044;-68
2022/08/20 08:46:32;;;;;;;4.97;1.15;;;20.70;99.90;;;;;;5042346;28;20432;-68
2022/08/20 08:49:00;;;;;;;6.55;1.70;;;20.60;99.90;;;;;;5041596;28;20412;-68
2022/08/20 08:51:33;;;;;;;4.03;1.38;;;20.60;99.90;;;;;;5047424;28;20068;-68
2022/08/20 08:54:00;;;;;;;8.70;1.70;;;20.60;99.90;;;;;;5057956;28;20043;-72
2022/08/20 08:56:29;;;;;;;8.38;1.40;;;20.70;99.90;;;;;;5053035;28;20152;-70
2022/08/20 08:59:03;;;;;;;9.10;1.65;;;20.80;99.90;;;;;;5059149;28;20241;-68
2022/08/20 09:01:33;;;;;;;5.95;1.40;;;20.80;99.90;;;;;;5045656;28;20214;-69
2022/08/20 09:04:01;;;;;;;8.73;1.50;;;20.90;99.90;;;;;;5044132;28;20041;-68
2022/08/20 09:06:27;;;;;;;3.95;1.30;;;20.80;99.90;;;;;;5041424;28;20175;-69
2022/08/20 09:08:58;;;;;;;5.75;1.10;;;20.90;99.90;;;;;;5028047;28;20411;-68
2022/08/20 09:11:24;;;;;;;5.55;1.52;;;20.80;99.90;;;;;;5041705;28;20395;-69
2022/08/20 09:13:52;;;;;;;6.28;1.17;;;20.80;99.90;;;;;;5043705;28;20045;-70
2022/08/20 09:16:19;;;;;;;4.63;1.13;;;20.80;99.90;;;;;;5042519;28;21269;-70
2022/08/20 09:18:45;;;;;;;4.13;1.00;;;20.80;99.90;;;;;;5041184;28;20222;-69
2022/08/20 09:21:10;;;;;;;3.15;1.08;;;20.90;99.90;;;;;;5047768;28;20127;-70
2022/08/20 09:23:37;;;;;;;6.07;1.20;;;21.00;99.90;;;;;;5044577;28;20041;-69
2022/08/20 09:26:02;;;;;;;4.32;1.08;;;21.00;99.90;;;;;;5046152;28;20037;-70
2022/08/20 09:28:28;;;;;;;5.72;1.23;;;20.90;99.90;;;;;;5053871;28;20060;-69
2022/08/20 09:30:54;;;;;;;7.03;1.40;;;21.00;99.90;;;;;;5050656;28;20047;-69
2022/08/20 09:33:19;;;;;;;7.65;1.55;;;21.00;99.90;;;;;;5052643;28;20033;-68
2022/08/20 09:35:45;;;;;;;4.18;1.15;;;21.10;99.90;;;;;;5042868;28;20049;-70
2022/08/20 09:38:11;;;;;;;5.28;1.35;;;21.10;99.90;;;;;;5041148;28;20478;-69
2022/08/20 09:40:37;;;;;;;8.77;1.20;;;21.20;99.90;;;;;;5041816;28;20041;-70
2022/08/20 09:43:07;;;;;;;4.22;1.30;;;21.30;99.90;;;;;;5027823;28;20043;-69
2022/08/20 09:45:33;;;;;;;3.80;1.30;;;21.30;99.90;;;;;;5024010;28;20037;-69
2022/08/20 09:47:59;;;;;;;6.65;1.73;;;21.40;99.90;;;;;;5045831;28;20044;-69
2022/08/20 09:50:26;;;;;;;6.97;2.33;;;21.50;99.90;;;;;;5044947;28;20047;-70
2022/08/20 09:52:54;;;;;;;5.78;1.70;;;21.50;99.90;;;;;;5042367;28;20044;-72
2022/08/20 09:55:31;;;;;;;6.38;1.42;;;21.60;99.90;;;;;;5046094;28;20125;-69
2022/08/20 09:57:58;;;;;;;7.93;1.92;;;21.60;99.90;;;;;;5042377;28;20083;-70
2022/08/20 10:00:24;;;;;;;5.03;1.40;;;21.60;99.90;;;;;;5056635;28;20055;-68
2022/08/20 10:02:50;;;;;;;5.47;1.85;;;21.50;99.90;;;;;;5058162;28;20033;-69
2022/08/20 10:05:15;;;;;;;4.35;1.70;;;21.40;99.90;;;;;;5039808;28;20435;-69
2022/08/20 10:07:41;;;;;;;7.95;1.50;;;21.40;99.90;;;;;;5031400;28;20044;-71
2022/08/20 10:10:10;;;;;;;4.53;1.40;;;21.60;99.90;;;;;;5038455;28;20044;-71
2022/08/20 10:12:36;;;;;;;5.85;1.30;;;21.70;99.90;;;;;;5034251;28;20044;-70
2022/08/20 10:15:02;;;;;;;4.45;1.48;;;21.80;99.90;;;;;;5042737;28;20037;-72
2022/08/20 10:17:28;;;;;;;10.48;1.70;;;22.00;99.90;;;;;;5032240;28;20476;-69
2022/08/20 10:19:54;;;;;;;6.15;1.30;;;22.10;99.90;;;;;;5049730;28;20095;-72
2022/08/20 10:22:19;;;;;;;5.03;1.30;;;22.10;99.90;;;;;;5033684;28;20043;-72
2022/08/20 10:24:45;;;;;;;6.00;1.70;;;22.10;99.90;;;;;;5033835;28;20547;-70
2022/08/20 10:27:11;;;;;;;6.50;1.27;;;22.10;99.90;;;;;;5055678;28;20076;-71
2022/08/20 10:29:36;;;;;;;6.65;1.40;;;22.10;99.90;;;;;;5031617;28;20041;-72
2022/08/20 10:32:14;;;;;;;5.40;1.20;;;22.20;99.90;;;;;;5032840;28;20835;-71
2022/08/20 10:34:42;;;;;;;4.57;1.40;;;22.30;99.90;;;;;;5037895;28;20495;-71
2022/08/20 10:37:12;;;;;;;5.63;1.30;;;22.30;99.90;;;;;;5041200;28;20052;-72
2022/08/20 10:39:38;;;;;;;4.65;1.67;;;22.40;99.90;;;;;;5039006;28;20043;-68
2022/08/20 10:42:04;;;;;;;6.38;1.50;;;22.50;99.90;;;;;;5040053;28;20028;-71
2022/08/20 10:44:29;;;;;;;4.28;1.10;;;22.50;99.90;;;;;;5019543;28;20040;-71
2022/08/20 10:46:55;;;;;;;5.78;1.40;;;22.50;99.90;;;;;;5051638;28;20041;-73
2022/08/20 10:49:20;;;;;;;11.23;2.05;;;22.50;99.90;;;;;;5039456;28;20124;-70
2022/08/20 10:51:46;;;;;;;6.30;1.88;;;22.60;99.90;;;;;;5042828;28;20399;-71
2022/08/20 10:54:12;;;;;;;6.13;1.42;;;22.60;99.90;;;;;;5040202;28;20036;-70
2022/08/20 10:56:37;;;;;;;6.05;1.90;;;22.60;99.90;;;;;;5036268;28;20860;-71
2022/08/20 10:59:03;;;;;;;5.65;1.40;;;22.60;99.60;;;;;;5033375;28;20037;-72
2022/08/20 11:01:28;;;;;;;5.72;1.60;;;22.60;99.30;;;;;;5037067;28;20094;-70
2022/08/20 11:03:54;;;;;;;5.68;1.50;;;22.60;99.90;;;;;;5046571;28;20389;-70
2022/08/20 11:06:19;;;;;;;8.30;1.52;;;22.70;99.90;;;;;;5032998;28;20091;-74
2022/08/20 11:08:45;;;;;;;3.67;1.45;;;22.70;99.90;;;;;;5033882;28;20045;-75
2022/08/20 11:11:10;;;;;;;4.55;1.60;;;22.70;99.90;;;;;;5039997;28;20055;-73
2022/08/20 11:13:37;;;;;;;5.07;1.67;;;22.70;99.90;;;;;;5039694;28;20480;-72
2022/08/20 11:16:03;;;;;;;6.03;1.70;;;22.80;99.90;;;;;;5048050;28;20090;-71
2022/08/20 11:18:30;;;;;;;10.93;1.90;;;23.00;99.90;;;;;;5060395;28;20136;-72
2022/08/20 11:20:56;;;;;;;5.30;1.80;;;23.20;99.90;;;;;;5064481;28;20041;-71
2022/08/20 11:23:21;;;;;;;5.43;1.80;;;23.30;99.90;;;;;;5060710;28;20043;-72
2022/08/20 11:25:47;;;;;;;5.65;1.85;;;23.40;98.30;;;;;;5048678;28;20029;-71
2022/08/20 11:28:13;;;;;;;5.53;1.65;;;23.50;99.00;;;;;;5048348;28;20041;-71
2022/08/20 11:30:39;;;;;;;4.20;1.60;;;23.40;99.90;;;;;;5045259;28;20462;-71
2022/08/20 11:33:06;;;;;;;4.20;1.70;;;23.20;98.10;;;;;;5046963;28;20045;-72
2022/08/20 11:35:33;;;;;;;5.75;1.70;;;22.90;99.20;;;;;;5047754;28;20051;-74
2022/08/20 11:37:59;;;;;;;7.82;2.28;;;22.50;99.80;;;;;;5044392;28;20049;-71
2022/08/20 11:40:26;;;;;;;8.00;1.58;;;22.20;99.90;;;;;;5047394;28;20036;-72
2022/08/20 11:42:52;;;;;;;6.10;2.15;;;22.00;99.90;;;;;;5042884;28;20467;-72
2022/08/20 11:45:17;;;;;;;11.57;2.45;;;21.80;99.90;;;;;;5049907;28;20119;-73
2022/08/20 11:47:43;;;;;;;6.43;1.90;;;21.80;99.90;;;;;;5045914;28;20518;-76
2022/08/20 11:50:12;;;;;;;5.28;1.77;;;22.00;99.90;;;;;;5055283;28;20111;-74
2022/08/20 11:52:38;;;;;;;4.07;1.90;;;22.20;99.90;;;;;;5050621;28;20076;-72
2022/08/20 11:55:06;;;;;;;4.47;1.95;;;22.20;99.90;;;;;;5051533;28;20064;-73
2022/08/20 11:57:35;;;;;;;6.32;1.90;;;22.30;99.90;;;;;;5046218;28;20481;-71
2022/08/20 12:00:06;;;;;;;4.78;1.73;;;22.50;99.90;;;;;;5049593;28;20396;-74
2022/08/20 12:02:31;;;;;;;5.10;1.90;;;22.70;99.90;;;;;;5045132;28;20114;-76
2022/08/20 12:04:57;;;;;;;8.80;2.05;;;22.90;99.90;;;;;;5047986;28;20041;-71
2022/08/20 12:07:24;;;;;;;7.28;1.77;;;23.10;99.90;;;;;;5050697;28;20389;-70
2022/08/20 12:09:51;;;;;;;4.38;1.70;;;23.20;99.90;;;;;;5047666;28;20569;-73
2022/08/20 12:12:19;;;;;;;8.02;1.70;;;23.30;99.90;;;;;;5042105;28;20606;-75
2022/08/20 12:14:45;;;;;;;7.40;1.70;;;23.40;98.90;;;;;;5042750;28;20049;-73
2022/08/20 12:17:18;;;;;;;7.10;1.83;;;23.50;99.70;;;;;;5050066;28;20045;-77
2022/08/20 12:19:44;;;;;;;4.75;1.67;;;23.50;98.70;;;;;;5051498;28;20040;-75
2022/08/20 12:22:10;;;;;;;6.13;1.70;;;23.40;98.60;;;;;;5051641;28;20033;-72
2022/08/20 12:24:36;;;;;;;7.35;1.75;;;23.40;98.50;;;;;;5044748;28;20408;-77
2022/08/20 12:27:14;;;;;;;6.78;1.63;;;23.30;99.20;;;;;;5050374;28;20047;-70
2022/08/20 12:29:43;;;;;;;4.53;1.52;;;23.30;97.40;;;;;;5041306;28;20435;-72
2022/08/20 12:32:09;;;;;;;5.78;1.60;;;23.30;99.40;;;;;;5041851;28;20043;-71
2022/08/20 12:34:40;;;;;;;4.88;1.60;;;23.30;97.70;;;;;;5056749;28;20491;-73
2022/08/20 12:37:21;;;;;;;4.60;1.70;;;23.50;99.90;;;;;;5044780;28;20041;-73
2022/08/20 12:39:49;;;;;;;6.97;1.77;;;23.50;99.90;;;;;;5057067;28;20083;-72
2022/08/20 12:42:15;;;;;;;6.05;1.70;;;23.60;97.40;;;;;;5044757;28;20437;-72
2022/08/20 12:44:42;;;;;;;4.75;1.50;;;23.70;98.10;;;;;;5043275;28;20029;-74
2022/08/20 12:47:13;;;;;;;6.45;1.50;;;23.50;95.70;;;;;;5043806;28;20047;-75
2022/08/20 12:49:42;;;;;;;8.10;1.83;;;23.40;95.90;;;;;;5041335;28;20155;-73
2022/08/20 12:52:08;;;;;;;8.93;1.92;;;23.30;97.60;;;;;;5037257;28;20045;-71